sensor_id;sensor_type;location;lat;lon;timestamp;P1;durP1;ratioP1;P2;durP2;ratioP2
22318;SDS011;11327;52.334;9.506;2022-10-18T00:01:27;11.85;;;9.38;;
22318;SDS011;11327;52.334;9.506;2022-10-18T00:04:48;15.08;;;10.38;;
22318;SDS011;11327;52.334;9.506;2022-10-18T00:08:09;12.85;;;9.58;;
22318;SDS011;11327;52.334;9.506;2022-10-18T00:11:30;14.53;;;10.20;;
22318;SDS011;11327;52.334;9.506;2022-10-18T00:14:51;12.78;;;8.90;;
22318;SDS011;11327;52.334;9.506;2022-10-18T00:18:12;15.32;;;10.50;;
22318;SDS011;11327;52.334;9.506;2022-10-18T00:21:33;13.55;;;9.00;;
22318;SDS011;11327;52.334;9.506;2022-10-18T00:24:54;13.40;;;9.53;;
22318;SDS011;11327;52.334;9.506;2022-10-18T00:28:15;13.83;;;10.08;;
22318;SDS011;11327;52.334;9.506;2022-10-18T00:31:36;10.95;;;8.85;;
22318;SDS011;11327;52.334;9.506;2022-10-18T00:34:57;13.62;;;10.40;;
22318;SDS011;11327;52.334;9.506;2022-10-18T00:38:18;12.10;;;9.03;;
22318;SDS011;11327;52.334;9.506;2022-10-18T00:41:39;11.93;;;9.30;;
22318;SDS011;11327;52.334;9.506;2022-10-18T00:45:08;10.32;;;9.03;;
22318;SDS011;11327;52.334;9.506;2022-10-18T00:48:31;14.45;;;9.63;;
22318;SDS011;11327;52.334;9.506;2022-10-18T00:51:56;12.47;;;9.70;;
22318;SDS011;11327;52.334;9.506;2022-10-18T00:55:19;12.35;;;8.93;;
22318;SDS011;11327;52.334;9.506;2022-10-18T00:58:40;14.93;;;9.60;;
22318;SDS011;11327;52.334;9.506;2022-10-18T01:02:01;13.00;;;9.58;;
22318;SDS011;11327;52.334;9.506;2022-10-18T01:05:23;13.20;;;10.35;;
22318;SDS011;11327;52.334;9.506;2022-10-18T01:16:14;13.43;;;9.45;;
22318;SDS011;11327;52.334;9.506;2022-10-18T01:23:18;13.68;;;10.10;;
22318;SDS011;11327;52.334;9.506;2022-10-18T01:34:04;11.35;;;8.68;;
22318;SDS011;11327;52.334;9.506;2022-10-18T01:37:28;15.30;;;10.90;;
22318;SDS011;11327;52.334;9.506;2022-10-18T01:40:50;12.58;;;10.48;;
22318;SDS011;11327;52.334;9.506;2022-10-18T01:44:14;14.38;;;10.00;;
22318;SDS011;11327;52.334;9.506;2022-10-18T01:47:38;11.33;;;9.23;;
22318;SDS011;11327;52.334;9.506;2022-10-18T01:51:00;13.38;;;10.28;;
22318;SDS011;11327;52.334;9.506;2022-10-18T01:54:23;13.48;;;10.05;;
22318;SDS011;11327;52.334;9.506;2022-10-18T01:57:52;15.50;;;11.45;;
22318;SDS011;11327;52.334;9.506;2022-10-18T02:01:18;15.88;;;11.53;;
22318;SDS011;11327;52.334;9.506;2022-10-18T02:11:58;15.58;;;11.20;;
22318;SDS011;11327;52.334;9.506;2022-10-18T02:15:26;17.07;;;12.30;;
22318;SDS011;11327;52.334;9.506;2022-10-18T02:18:47;15.23;;;11.43;;
22318;SDS011;11327;52.334;9.506;2022-10-18T02:22:19;16.40;;;12.10;;
22318;SDS011;11327;52.334;9.506;2022-10-18T02:25:42;13.90;;;10.88;;
22318;SDS011;11327;52.334;9.506;2022-10-18T02:29:03;14.78;;;11.10;;
22318;SDS011;11327;52.334;9.506;2022-10-18T02:36:09;13.75;;;11.25;;
22318;SDS011;11327;52.334;9.506;2022-10-18T02:42:54;14.85;;;11.08;;
22318;SDS011;11327;52.334;9.506;2022-10-18T02:46:16;18.32;;;12.58;;
22318;SDS011;11327;52.334;9.506;2022-10-18T02:49:37;16.30;;;12.15;;
22318;SDS011;11327;52.334;9.506;2022-10-18T02:52:58;17.75;;;12.55;;
22318;SDS011;11327;52.334;9.506;2022-10-18T02:56:19;18.12;;;12.98;;
22318;SDS011;11327;52.334;9.506;2022-10-18T02:59:40;18.57;;;13.20;;
22318;SDS011;11327;52.334;9.506;2022-10-18T03:03:01;17.73;;;12.30;;
22318;SDS011;11327;52.334;9.506;2022-10-18T03:06:22;17.17;;;12.93;;
22318;SDS011;11327;52.334;9.506;2022-10-18T03:09:43;17.75;;;13.13;;
22318;SDS011;11327;52.334;9.506;2022-10-18T03:13:04;18.65;;;12.88;;
22318;SDS011;11327;52.334;9.506;2022-10-18T03:16:25;17.30;;;12.50;;
22318;SDS011;11327;52.334;9.506;2022-10-18T03:19:46;15.95;;;12.10;;
22318;SDS011;11327;52.334;9.506;2022-10-18T03:23:07;18.52;;;14.05;;
22318;SDS011;11327;52.334;9.506;2022-10-18T03:26:28;17.48;;;12.23;;
22318;SDS011;11327;52.334;9.506;2022-10-18T03:29:49;16.25;;;12.33;;
22318;SDS011;11327;52.334;9.506;2022-10-18T03:33:10;15.98;;;12.37;;
22318;SDS011;11327;52.334;9.506;2022-10-18T03:36:31;20.00;;;13.03;;
22318;SDS011;11327;52.334;9.506;2022-10-18T03:39:53;15.35;;;11.85;;
22318;SDS011;11327;52.334;9.506;2022-10-18T03:43:14;14.40;;;11.18;;
22318;SDS011;11327;52.334;9.506;2022-10-18T03:46:35;17.85;;;12.18;;
22318;SDS011;11327;52.334;9.506;2022-10-18T03:49:56;16.57;;;12.50;;
22318;SDS011;11327;52.334;9.506;2022-10-18T03:53:17;17.75;;;12.82;;
22318;SDS011;11327;52.334;9.506;2022-10-18T03:56:38;16.42;;;12.23;;
22318;SDS011;11327;52.334;9.506;2022-10-18T03:59:59;16.77;;;12.55;;
22318;SDS011;11327;52.334;9.506;2022-10-18T04:03:20;15.85;;;12.40;;
22318;SDS011;11327;52.334;9.506;2022-10-18T04:06:42;17.20;;;12.80;;
22318;SDS011;11327;52.334;9.506;2022-10-18T04:10:03;17.05;;;13.25;;
22318;SDS011;11327;52.334;9.506;2022-10-18T04:13:24;15.03;;;11.25;;
22318;SDS011;11327;52.334;9.506;2022-10-18T04:16:45;14.87;;;11.25;;
22318;SDS011;11327;52.334;9.506;2022-10-18T04:20:06;17.07;;;12.58;;
22318;SDS011;11327;52.334;9.506;2022-10-18T04:23:28;19.12;;;13.35;;
22318;SDS011;11327;52.334;9.506;2022-10-18T04:26:49;18.60;;;13.55;;
22318;SDS011;11327;52.334;9.506;2022-10-18T04:30:10;18.45;;;14.10;;
22318;SDS011;11327;52.334;9.506;2022-10-18T04:33:31;22.30;;;15.43;;
22318;SDS011;11327;52.334;9.506;2022-10-18T04:36:52;21.27;;;14.93;;
22318;SDS011;11327;52.334;9.506;2022-10-18T04:40:13;23.00;;;15.63;;
22318;SDS011;11327;52.334;9.506;2022-10-18T04:43:34;22.65;;;15.63;;
22318;SDS011;11327;52.334;9.506;2022-10-18T04:46:55;20.80;;;15.18;;
22318;SDS011;11327;52.334;9.506;2022-10-18T04:50:16;20.95;;;14.75;;
22318;SDS011;11327;52.334;9.506;2022-10-18T04:53:37;19.02;;;14.30;;
22318;SDS011;11327;52.334;9.506;2022-10-18T04:56:58;17.37;;;13.08;;
22318;SDS011;11327;52.334;9.506;2022-10-18T05:00:19;17.50;;;12.23;;
22318;SDS011;11327;52.334;9.506;2022-10-18T05:03:40;17.55;;;13.08;;
22318;SDS011;11327;52.334;9.506;2022-10-18T05:07:01;16.30;;;12.15;;
22318;SDS011;11327;52.334;9.506;2022-10-18T05:10:22;16.65;;;12.00;;
22318;SDS011;11327;52.334;9.506;2022-10-18T05:13:43;17.10;;;12.68;;
22318;SDS011;11327;52.334;9.506;2022-10-18T05:17:04;19.65;;;13.32;;
22318;SDS011;11327;52.334;9.506;2022-10-18T05:20:25;18.07;;;12.78;;
22318;SDS011;11327;52.334;9.506;2022-10-18T05:23:46;20.10;;;14.53;;
22318;SDS011;11327;52.334;9.506;2022-10-18T05:27:06;21.12;;;14.33;;
22318;SDS011;11327;52.334;9.506;2022-10-18T05:30:29;18.12;;;13.10;;
22318;SDS011;11327;52.334;9.506;2022-10-18T05:33:50;20.95;;;14.65;;
22318;SDS011;11327;52.334;9.506;2022-10-18T05:37:11;23.67;;;15.20;;
22318;SDS011;11327;52.334;9.506;2022-10-18T05:40:32;20.40;;;13.43;;
22318;SDS011;11327;52.334;9.506;2022-10-18T05:43:53;19.35;;;13.22;;
22318;SDS011;11327;52.334;9.506;2022-10-18T05:47:14;19.25;;;14.63;;
22318;SDS011;11327;52.334;9.506;2022-10-18T05:50:35;23.50;;;15.60;;
22318;SDS011;11327;52.334;9.506;2022-10-18T05:53:56;20.90;;;14.38;;
22318;SDS011;11327;52.334;9.506;2022-10-18T05:57:18;20.57;;;14.30;;
22318;SDS011;11327;52.334;9.506;2022-10-18T06:00:39;19.57;;;13.70;;
22318;SDS011;11327;52.334;9.506;2022-10-18T06:03:59;19.98;;;13.62;;
22318;SDS011;11327;52.334;9.506;2022-10-18T06:07:20;18.12;;;12.60;;
22318;SDS011;11327;52.334;9.506;2022-10-18T06:10:41;19.23;;;13.70;;
22318;SDS011;11327;52.334;9.506;2022-10-18T06:14:02;20.60;;;14.33;;
22318;SDS011;11327;52.334;9.506;2022-10-18T06:17:24;20.55;;;14.58;;
22318;SDS011;11327;52.334;9.506;2022-10-18T06:20:45;23.00;;;15.25;;
22318;SDS011;11327;52.334;9.506;2022-10-18T06:24:06;21.52;;;15.25;;
22318;SDS011;11327;52.334;9.506;2022-10-18T06:27:26;22.70;;;15.93;;
22318;SDS011;11327;52.334;9.506;2022-10-18T06:30:47;22.85;;;15.55;;
22318;SDS011;11327;52.334;9.506;2022-10-18T06:34:08;23.15;;;14.85;;
22318;SDS011;11327;52.334;9.506;2022-10-18T06:37:29;23.32;;;14.40;;
22318;SDS011;11327;52.334;9.506;2022-10-18T06:40:50;24.92;;;16.45;;
22318;SDS011;11327;52.334;9.506;2022-10-18T06:44:12;26.77;;;16.20;;
22318;SDS011;11327;52.334;9.506;2022-10-18T06:47:34;25.62;;;15.50;;
22318;SDS011;11327;52.334;9.506;2022-10-18T06:50:56;22.62;;;16.17;;
22318;SDS011;11327;52.334;9.506;2022-10-18T06:54:18;22.80;;;15.13;;
22318;SDS011;11327;52.334;9.506;2022-10-18T06:57:39;24.12;;;16.07;;
22318;SDS011;11327;52.334;9.506;2022-10-18T07:01:10;25.10;;;15.75;;
22318;SDS011;11327;52.334;9.506;2022-10-18T07:04:32;22.85;;;14.00;;
22318;SDS011;11327;52.334;9.506;2022-10-18T07:07:54;25.00;;;15.72;;
22318;SDS011;11327;52.334;9.506;2022-10-18T07:11:15;22.15;;;14.98;;
22318;SDS011;11327;52.334;9.506;2022-10-18T07:14:38;19.73;;;13.72;;
22318;SDS011;11327;52.334;9.506;2022-10-18T07:17:59;24.30;;;14.83;;
22318;SDS011;11327;52.334;9.506;2022-10-18T07:21:20;21.82;;;14.40;;
22318;SDS011;11327;52.334;9.506;2022-10-18T07:24:43;23.07;;;15.75;;
22318;SDS011;11327;52.334;9.506;2022-10-18T07:28:04;22.52;;;14.60;;
22318;SDS011;11327;52.334;9.506;2022-10-18T07:31:25;21.90;;;14.93;;
22318;SDS011;11327;52.334;9.506;2022-10-18T07:34:46;22.62;;;15.08;;
22318;SDS011;11327;52.334;9.506;2022-10-18T07:38:07;25.90;;;16.45;;
22318;SDS011;11327;52.334;9.506;2022-10-18T07:41:28;25.68;;;15.70;;
22318;SDS011;11327;52.334;9.506;2022-10-18T07:44:51;25.50;;;16.27;;
22318;SDS011;11327;52.334;9.506;2022-10-18T07:48:12;20.97;;;14.98;;
22318;SDS011;11327;52.334;9.506;2022-10-18T07:51:33;20.50;;;13.85;;
22318;SDS011;11327;52.334;9.506;2022-10-18T07:54:55;21.48;;;14.43;;
22318;SDS011;11327;52.334;9.506;2022-10-18T07:58:16;21.85;;;14.85;;
22318;SDS011;11327;52.334;9.506;2022-10-18T08:01:37;30.62;;;18.95;;
22318;SDS011;11327;52.334;9.506;2022-10-18T08:04:58;30.48;;;19.27;;
22318;SDS011;11327;52.334;9.506;2022-10-18T08:08:19;28.00;;;17.25;;
22318;SDS011;11327;52.334;9.506;2022-10-18T08:11:42;33.38;;;20.65;;
22318;SDS011;11327;52.334;9.506;2022-10-18T08:15:03;36.03;;;20.68;;
22318;SDS011;11327;52.334;9.506;2022-10-18T08:18:24;32.17;;;20.25;;
22318;SDS011;11327;52.334;9.506;2022-10-18T08:21:45;31.62;;;19.50;;
22318;SDS011;11327;52.334;9.506;2022-10-18T08:25:06;35.63;;;21.23;;
22318;SDS011;11327;52.334;9.506;2022-10-18T08:28:27;32.50;;;19.70;;
22318;SDS011;11327;52.334;9.506;2022-10-18T08:31:49;37.45;;;21.37;;
22318;SDS011;11327;52.334;9.506;2022-10-18T08:35:10;34.83;;;19.82;;
22318;SDS011;11327;52.334;9.506;2022-10-18T08:38:32;38.80;;;22.17;;
22318;SDS011;11327;52.334;9.506;2022-10-18T08:45:45;34.90;;;19.73;;
22318;SDS011;11327;52.334;9.506;2022-10-18T08:49:06;29.87;;;18.20;;
22318;SDS011;11327;52.334;9.506;2022-10-18T08:52:34;33.15;;;19.30;;
22318;SDS011;11327;52.334;9.506;2022-10-18T08:56:10;31.50;;;18.85;;
22318;SDS011;11327;52.334;9.506;2022-10-18T08:59:36;30.95;;;18.05;;
22318;SDS011;11327;52.334;9.506;2022-10-18T09:21:19;27.25;;;16.95;;
22318;SDS011;11327;52.334;9.506;2022-10-18T09:38:46;36.00;;;21.65;;
22318;SDS011;11327;52.334;9.506;2022-10-18T09:45:42;40.67;;;21.77;;
22318;SDS011;11327;52.334;9.506;2022-10-18T09:49:08;33.55;;;19.23;;
22318;SDS011;11327;52.334;9.506;2022-10-18T09:52:40;30.90;;;17.42;;
22318;SDS011;11327;52.334;9.506;2022-10-18T09:56:10;24.07;;;14.28;;
22318;SDS011;11327;52.334;9.506;2022-10-18T09:59:40;25.82;;;14.55;;
22318;SDS011;11327;52.334;9.506;2022-10-18T10:03:05;22.30;;;13.80;;
22318;SDS011;11327;52.334;9.506;2022-10-18T10:06:32;24.18;;;14.95;;
22318;SDS011;11327;52.334;9.506;2022-10-18T10:09:57;28.23;;;16.42;;
22318;SDS011;11327;52.334;9.506;2022-10-18T10:20:19;26.20;;;16.00;;
22318;SDS011;11327;52.334;9.506;2022-10-18T10:23:45;22.65;;;14.60;;
22318;SDS011;11327;52.334;9.506;2022-10-18T10:30:52;21.93;;;13.95;;
22318;SDS011;11327;52.334;9.506;2022-10-18T10:37:37;23.40;;;14.35;;
22318;SDS011;11327;52.334;9.506;2022-10-18T10:40:58;20.82;;;12.75;;
22318;SDS011;11327;52.334;9.506;2022-10-18T10:44:21;22.50;;;13.38;;
22318;SDS011;11327;52.334;9.506;2022-10-18T10:47:43;23.65;;;12.95;;
22318;SDS011;11327;52.334;9.506;2022-10-18T10:54:29;16.57;;;10.58;;
22318;SDS011;11327;52.334;9.506;2022-10-18T10:57:53;22.27;;;12.90;;
22318;SDS011;11327;52.334;9.506;2022-10-18T11:01:23;21.97;;;12.90;;
22318;SDS011;11327;52.334;9.506;2022-10-18T11:04:46;22.17;;;14.58;;
22318;SDS011;11327;52.334;9.506;2022-10-18T11:08:09;23.30;;;13.93;;
22318;SDS011;11327;52.334;9.506;2022-10-18T11:11:33;22.40;;;12.53;;
22318;SDS011;11327;52.334;9.506;2022-10-18T11:15:44;20.23;;;11.80;;
22318;SDS011;11327;52.334;9.506;2022-10-18T11:18:32;20.27;;;11.30;;
22318;SDS011;11327;52.334;9.506;2022-10-18T11:21:55;20.02;;;10.75;;
22318;SDS011;11327;52.334;9.506;2022-10-18T11:25:16;19.07;;;11.90;;
22318;SDS011;11327;52.334;9.506;2022-10-18T11:28:44;18.57;;;11.03;;
22318;SDS011;11327;52.334;9.506;2022-10-18T11:35:50;20.72;;;10.88;;
22318;SDS011;11327;52.334;9.506;2022-10-18T11:42:49;18.60;;;12.00;;
22318;SDS011;11327;52.334;9.506;2022-10-18T12:00:51;17.48;;;10.48;;
22318;SDS011;11327;52.334;9.506;2022-10-18T12:04:18;17.50;;;10.87;;
22318;SDS011;11327;52.334;9.506;2022-10-18T12:07:44;13.75;;;8.95;;
22318;SDS011;11327;52.334;9.506;2022-10-18T12:11:18;14.95;;;8.10;;
22318;SDS011;11327;52.334;9.506;2022-10-18T12:14:50;12.78;;;6.67;;
22318;SDS011;11327;52.334;9.506;2022-10-18T12:18:17;14.98;;;7.30;;
22318;SDS011;11327;52.334;9.506;2022-10-18T12:21:40;11.95;;;6.70;;
22318;SDS011;11327;52.334;9.506;2022-10-18T12:25:03;11.65;;;6.50;;
22318;SDS011;11327;52.334;9.506;2022-10-18T12:32:30;11.22;;;5.92;;
22318;SDS011;11327;52.334;9.506;2022-10-18T12:39:22;12.63;;;4.42;;
22318;SDS011;11327;52.334;9.506;2022-10-18T12:42:49;10.68;;;4.25;;
22318;SDS011;11327;52.334;9.506;2022-10-18T12:46:11;8.48;;;3.60;;
22318;SDS011;11327;52.334;9.506;2022-10-18T12:49:33;11.43;;;4.12;;
22318;SDS011;11327;52.334;9.506;2022-10-18T12:53:13;10.15;;;3.70;;
22318;SDS011;11327;52.334;9.506;2022-10-18T12:56:37;10.53;;;4.55;;
22318;SDS011;11327;52.334;9.506;2022-10-18T13:00:01;8.55;;;3.90;;
22318;SDS011;11327;52.334;9.506;2022-10-18T13:10:31;8.28;;;3.37;;
22318;SDS011;11327;52.334;9.506;2022-10-18T13:17:49;8.28;;;2.72;;
22318;SDS011;11327;52.334;9.506;2022-10-18T13:21:30;9.53;;;3.30;;
22318;SDS011;11327;52.334;9.506;2022-10-18T13:39:44;8.23;;;2.77;;
22318;SDS011;11327;52.334;9.506;2022-10-18T13:50:22;6.95;;;2.08;;
22318;SDS011;11327;52.334;9.506;2022-10-18T13:53:54;7.45;;;1.70;;
22318;SDS011;11327;52.334;9.506;2022-10-18T14:01:10;7.28;;;1.80;;
22318;SDS011;11327;52.334;9.506;2022-10-18T14:08:32;5.08;;;1.57;;
22318;SDS011;11327;52.334;9.506;2022-10-18T14:11:54;4.72;;;1.50;;
22318;SDS011;11327;52.334;9.506;2022-10-18T14:15:22;5.78;;;1.30;;
22318;SDS011;11327;52.334;9.506;2022-10-18T14:18:44;6.15;;;1.27;;
22318;SDS011;11327;52.334;9.506;2022-10-18T14:25:48;6.78;;;1.72;;
22318;SDS011;11327;52.334;9.506;2022-10-18T14:29:15;6.45;;;1.60;;
22318;SDS011;11327;52.334;9.506;2022-10-18T14:32:40;5.60;;;1.67;;
22318;SDS011;11327;52.334;9.506;2022-10-18T14:36:11;4.45;;;1.60;;
22318;SDS011;11327;52.334;9.506;2022-10-18T14:39:40;9.35;;;1.65;;
22318;SDS011;11327;52.334;9.506;2022-10-18T14:43:09;5.95;;;1.65;;
22318;SDS011;11327;52.334;9.506;2022-10-18T14:46:32;5.28;;;1.72;;
22318;SDS011;11327;52.334;9.506;2022-10-18T14:49:55;6.22;;;1.92;;
22318;SDS011;11327;52.334;9.506;2022-10-18T14:53:20;4.17;;;1.27;;
22318;SDS011;11327;52.334;9.506;2022-10-18T14:56:41;3.72;;;1.30;;
22318;SDS011;11327;52.334;9.506;2022-10-18T15:00:05;5.55;;;1.20;;
22318;SDS011;11327;52.334;9.506;2022-10-18T15:03:30;4.83;;;1.12;;
22318;SDS011;11327;52.334;9.506;2022-10-18T15:06:51;3.90;;;0.98;;
22318;SDS011;11327;52.334;9.506;2022-10-18T15:10:15;6.87;;;0.80;;
22318;SDS011;11327;52.334;9.506;2022-10-18T15:13:41;5.12;;;1.07;;
22318;SDS011;11327;52.334;9.506;2022-10-18T15:20:45;6.37;;;1.10;;
22318;SDS011;11327;52.334;9.506;2022-10-18T15:24:37;5.60;;;1.05;;
22318;SDS011;11327;52.334;9.506;2022-10-18T15:27:59;5.22;;;1.40;;
22318;SDS011;11327;52.334;9.506;2022-10-18T15:34:48;5.55;;;1.30;;
22318;SDS011;11327;52.334;9.506;2022-10-18T15:38:13;6.47;;;1.70;;
22318;SDS011;11327;52.334;9.506;2022-10-18T15:41:43;4.83;;;1.37;;
22318;SDS011;11327;52.334;9.506;2022-10-18T15:55:44;3.83;;;1.07;;
22318;SDS011;11327;52.334;9.506;2022-10-18T15:59:19;3.65;;;1.05;;
22318;SDS011;11327;52.334;9.506;2022-10-18T16:02:37;3.58;;;1.20;;
22318;SDS011;11327;52.334;9.506;2022-10-18T16:05:58;4.83;;;1.20;;
22318;SDS011;11327;52.334;9.506;2022-10-18T16:09:27;4.75;;;1.45;;
22318;SDS011;11327;52.334;9.506;2022-10-18T16:12:48;5.45;;;1.30;;
22318;SDS011;11327;52.334;9.506;2022-10-18T16:16:27;3.58;;;1.20;;
22318;SDS011;11327;52.334;9.506;2022-10-18T16:19:42;3.83;;;1.17;;
22318;SDS011;11327;52.334;9.506;2022-10-18T16:23:08;2.72;;;1.07;;
22318;SDS011;11327;52.334;9.506;2022-10-18T16:26:31;3.35;;;1.15;;
22318;SDS011;11327;52.334;9.506;2022-10-18T16:29:53;4.47;;;1.57;;
22318;SDS011;11327;52.334;9.506;2022-10-18T16:33:14;4.00;;;1.32;;
22318;SDS011;11327;52.334;9.506;2022-10-18T16:36:35;3.90;;;1.27;;
22318;SDS011;11327;52.334;9.506;2022-10-18T16:39:56;4.22;;;1.12;;
22318;SDS011;11327;52.334;9.506;2022-10-18T16:43:17;5.28;;;1.40;;
22318;SDS011;11327;52.334;9.506;2022-10-18T16:46:38;5.47;;;1.37;;
22318;SDS011;11327;52.334;9.506;2022-10-18T16:50:00;3.72;;;1.60;;
22318;SDS011;11327;52.334;9.506;2022-10-18T16:53:23;4.10;;;1.10;;
22318;SDS011;11327;52.334;9.506;2022-10-18T16:56:44;6.90;;;1.57;;
22318;SDS011;11327;52.334;9.506;2022-10-18T17:00:07;4.90;;;1.65;;
22318;SDS011;11327;52.334;9.506;2022-10-18T17:03:34;5.12;;;2.00;;
22318;SDS011;11327;52.334;9.506;2022-10-18T17:06:55;3.92;;;2.10;;
22318;SDS011;11327;52.334;9.506;2022-10-18T17:10:18;10.15;;;4.67;;
22318;SDS011;11327;52.334;9.506;2022-10-18T17:13:41;7.20;;;3.90;;
22318;SDS011;11327;52.334;9.506;2022-10-18T17:17:02;7.12;;;2.95;;
22318;SDS011;11327;52.334;9.506;2022-10-18T17:20:25;5.12;;;2.05;;
22318;SDS011;11327;52.334;9.506;2022-10-18T17:23:46;4.70;;;1.87;;
22318;SDS011;11327;52.334;9.506;2022-10-18T17:27:08;6.60;;;2.20;;
22318;SDS011;11327;52.334;9.506;2022-10-18T17:30:32;7.67;;;2.70;;
22318;SDS011;11327;52.334;9.506;2022-10-18T17:33:53;6.42;;;2.33;;
22318;SDS011;11327;52.334;9.506;2022-10-18T17:37:14;6.40;;;4.17;;
22318;SDS011;11327;52.334;9.506;2022-10-18T17:40:38;7.85;;;4.42;;
22318;SDS011;11327;52.334;9.506;2022-10-18T17:44:02;5.50;;;3.00;;
22318;SDS011;11327;52.334;9.506;2022-10-18T17:47:23;6.17;;;2.72;;
22318;SDS011;11327;52.334;9.506;2022-10-18T17:50:44;6.45;;;2.15;;
22318;SDS011;11327;52.334;9.506;2022-10-18T17:54:06;11.73;;;7.10;;
22318;SDS011;11327;52.334;9.506;2022-10-18T17:57:27;11.43;;;6.92;;
22318;SDS011;11327;52.334;9.506;2022-10-18T18:00:48;9.55;;;5.22;;
22318;SDS011;11327;52.334;9.506;2022-10-18T18:04:09;7.72;;;3.90;;
22318;SDS011;11327;52.334;9.506;2022-10-18T18:07:30;6.65;;;2.70;;
22318;SDS011;11327;52.334;9.506;2022-10-18T18:10:53;5.10;;;2.27;;
22318;SDS011;11327;52.334;9.506;2022-10-18T18:14:15;4.33;;;1.75;;
22318;SDS011;11327;52.334;9.506;2022-10-18T18:17:36;4.53;;;2.22;;
22318;SDS011;11327;52.334;9.506;2022-10-18T18:20:57;6.50;;;2.50;;
22318;SDS011;11327;52.334;9.506;2022-10-18T18:24:18;5.53;;;2.35;;
22318;SDS011;11327;52.334;9.506;2022-10-18T18:27:41;4.78;;;2.08;;
22318;SDS011;11327;52.334;9.506;2022-10-18T18:31:10;4.65;;;1.60;;
22318;SDS011;11327;52.334;9.506;2022-10-18T18:34:29;4.42;;;1.80;;
22318;SDS011;11327;52.334;9.506;2022-10-18T18:37:49;8.25;;;3.60;;
22318;SDS011;11327;52.334;9.506;2022-10-18T18:41:12;9.45;;;4.10;;
22318;SDS011;11327;52.334;9.506;2022-10-18T18:44:34;6.62;;;3.15;;
22318;SDS011;11327;52.334;9.506;2022-10-18T18:47:55;5.17;;;2.95;;
22318;SDS011;11327;52.334;9.506;2022-10-18T18:51:17;6.08;;;3.30;;
22318;SDS011;11327;52.334;9.506;2022-10-18T18:54:40;7.03;;;3.37;;
22318;SDS011;11327;52.334;9.506;2022-10-18T18:58:00;6.22;;;3.00;;
22318;SDS011;11327;52.334;9.506;2022-10-18T19:01:22;6.53;;;2.90;;
22318;SDS011;11327;52.334;9.506;2022-10-18T19:04:45;5.92;;;3.33;;
22318;SDS011;11327;52.334;9.506;2022-10-18T19:08:06;5.50;;;2.92;;
22318;SDS011;11327;52.334;9.506;2022-10-18T19:11:28;5.70;;;2.80;;
22318;SDS011;11327;52.334;9.506;2022-10-18T19:14:52;5.12;;;2.55;;
22318;SDS011;11327;52.334;9.506;2022-10-18T19:18:13;7.37;;;2.75;;
22318;SDS011;11327;52.334;9.506;2022-10-18T19:21:35;5.37;;;3.00;;
22318;SDS011;11327;52.334;9.506;2022-10-18T19:25:00;8.60;;;3.35;;
22318;SDS011;11327;52.334;9.506;2022-10-18T19:28:21;4.10;;;2.77;;
22318;SDS011;11327;52.334;9.506;2022-10-18T19:31:42;13.43;;;6.12;;
22318;SDS011;11327;52.334;9.506;2022-10-18T19:35:03;9.80;;;4.78;;
22318;SDS011;11327;52.334;9.506;2022-10-18T19:38:24;8.90;;;4.40;;
22318;SDS011;11327;52.334;9.506;2022-10-18T19:41:46;8.03;;;3.50;;
22318;SDS011;11327;52.334;9.506;2022-10-18T19:45:11;7.37;;;3.15;;
22318;SDS011;11327;52.334;9.506;2022-10-18T19:48:32;5.37;;;2.80;;
22318;SDS011;11327;52.334;9.506;2022-10-18T19:51:53;6.60;;;2.98;;
22318;SDS011;11327;52.334;9.506;2022-10-18T19:55:15;9.10;;;6.10;;
22318;SDS011;11327;52.334;9.506;2022-10-18T19:58:36;10.63;;;5.60;;
22318;SDS011;11327;52.334;9.506;2022-10-18T20:01:56;7.50;;;3.60;;
22318;SDS011;11327;52.334;9.506;2022-10-18T20:05:19;5.90;;;3.00;;
22318;SDS011;11327;52.334;9.506;2022-10-18T20:08:40;7.28;;;2.90;;
22318;SDS011;11327;52.334;9.506;2022-10-18T20:12:02;6.15;;;3.10;;
22318;SDS011;11327;52.334;9.506;2022-10-18T20:15:23;7.53;;;3.50;;
22318;SDS011;11327;52.334;9.506;2022-10-18T20:18:44;6.20;;;2.60;;
22318;SDS011;11327;52.334;9.506;2022-10-18T20:22:05;5.70;;;2.95;;
22318;SDS011;11327;52.334;9.506;2022-10-18T20:25:26;7.45;;;3.02;;
22318;SDS011;11327;52.334;9.506;2022-10-18T20:28:47;7.12;;;2.60;;
22318;SDS011;11327;52.334;9.506;2022-10-18T20:32:11;8.68;;;2.85;;
22318;SDS011;11327;52.334;9.506;2022-10-18T20:35:32;7.45;;;2.55;;
22318;SDS011;11327;52.334;9.506;2022-10-18T20:38:53;5.37;;;2.52;;
22318;SDS011;11327;52.334;9.506;2022-10-18T20:42:14;7.33;;;2.75;;
22318;SDS011;11327;52.334;9.506;2022-10-18T20:45:35;5.67;;;2.37;;
22318;SDS011;11327;52.334;9.506;2022-10-18T20:48:56;7.45;;;2.47;;
22318;SDS011;11327;52.334;9.506;2022-10-18T20:52:17;5.45;;;2.60;;
22318;SDS011;11327;52.334;9.506;2022-10-18T20:55:38;6.65;;;2.58;;
22318;SDS011;11327;52.334;9.506;2022-10-18T20:58:59;9.70;;;3.08;;
22318;SDS011;11327;52.334;9.506;2022-10-18T21:02:20;7.40;;;3.15;;
22318;SDS011;11327;52.334;9.506;2022-10-18T21:05:41;8.68;;;3.10;;
22318;SDS011;11327;52.334;9.506;2022-10-18T21:09:06;6.75;;;3.30;;
22318;SDS011;11327;52.334;9.506;2022-10-18T21:12:31;5.80;;;2.83;;
22318;SDS011;11327;52.334;9.506;2022-10-18T21:15:52;7.30;;;3.45;;
22318;SDS011;11327;52.334;9.506;2022-10-18T21:19:15;6.70;;;3.42;;
22318;SDS011;11327;52.334;9.506;2022-10-18T21:22:38;9.75;;;3.65;;
22318;SDS011;11327;52.334;9.506;2022-10-18T21:25:59;9.50;;;4.00;;
22318;SDS011;11327;52.334;9.506;2022-10-18T21:29:20;8.18;;;3.30;;
22318;SDS011;11327;52.334;9.506;2022-10-18T21:32:41;8.03;;;3.50;;
22318;SDS011;11327;52.334;9.506;2022-10-18T21:36:02;7.65;;;3.30;;
22318;SDS011;11327;52.334;9.506;2022-10-18T21:39:24;8.98;;;3.50;;
22318;SDS011;11327;52.334;9.506;2022-10-18T21:42:45;9.45;;;3.60;;
22318;SDS011;11327;52.334;9.506;2022-10-18T21:46:06;5.75;;;3.27;;
22318;SDS011;11327;52.334;9.506;2022-10-18T21:49:27;13.93;;;3.70;;
22318;SDS011;11327;52.334;9.506;2022-10-18T21:52:49;9.18;;;4.10;;
22318;SDS011;11327;52.334;9.506;2022-10-18T21:56:16;8.15;;;3.50;;
22318;SDS011;11327;52.334;9.506;2022-10-18T21:59:34;9.83;;;3.60;;
22318;SDS011;11327;52.334;9.506;2022-10-18T22:03:08;7.47;;;3.20;;
22318;SDS011;11327;52.334;9.506;2022-10-18T22:06:31;8.68;;;3.30;;
22318;SDS011;11327;52.334;9.506;2022-10-18T22:09:54;8.60;;;2.90;;
22318;SDS011;11327;52.334;9.506;2022-10-18T22:13:15;9.45;;;3.20;;
22318;SDS011;11327;52.334;9.506;2022-10-18T22:16:36;7.87;;;2.90;;
22318;SDS011;11327;52.334;9.506;2022-10-18T22:19:57;6.22;;;2.58;;
22318;SDS011;11327;52.334;9.506;2022-10-18T22:23:18;10.03;;;3.75;;
22318;SDS011;11327;52.334;9.506;2022-10-18T22:26:41;5.83;;;2.60;;
22318;SDS011;11327;52.334;9.506;2022-10-18T22:30:02;7.95;;;2.83;;
22318;SDS011;11327;52.334;9.506;2022-10-18T22:33:24;9.73;;;3.02;;
22318;SDS011;11327;52.334;9.506;2022-10-18T22:36:45;9.65;;;2.40;;
22318;SDS011;11327;52.334;9.506;2022-10-18T22:40:07;8.03;;;3.08;;
22318;SDS011;11327;52.334;9.506;2022-10-18T22:43:29;6.55;;;2.40;;
22318;SDS011;11327;52.334;9.506;2022-10-18T22:46:49;8.08;;;2.65;;
22318;SDS011;11327;52.334;9.506;2022-10-18T22:50:10;6.17;;;2.40;;
22318;SDS011;11327;52.334;9.506;2022-10-18T22:53:31;8.65;;;2.22;;
22318;SDS011;11327;52.334;9.506;2022-10-18T22:56:53;9.48;;;2.52;;
22318;SDS011;11327;52.334;9.506;2022-10-18T23:00:14;7.20;;;2.20;;
22318;SDS011;11327;52.334;9.506;2022-10-18T23:03:35;6.95;;;2.70;;